KLNP

Lonesome Pine Airport

Wise, Virginia, USA
METAR KLNP 141755Z AUTO 13006KT 090V150 10SM -DZ OVC075 09/06 A3008 RMK AO2
Observed Flight Rules
Dec-14 @ 17:55 UTC (31 minutes ago) Visual Flight Rules
Wind Visibility Clouds Conditions
130° at 6 knots 10 miles
  • Overcast at 7,500' AGL
  • Light Drizzle
Temperatures Readings
Current 9°C / 48°F
Dewpoint 6°C / 43°F
Humidity 82%
Altimeter 30.08" Hg
Pressure 1019 hPa
Elevation 817
METAR KLNP 141755Z AUTO 13006KT 090V150 10SM -DZ OVC075 09/06 A3008 RMK AO2
Observed Flight Rules
Dec-14 @ 17:55 UTC
(31 minutes ago)
VFR
Wind Visibility
130° at 6 knots 10 miles
Clouds
  • Overcast at 7,500' AGL
Conditions
  • Light Drizzle
Temperature Dewpoint
9°C / 48°F 6°C / 43°F
Humidity Altimeter Pressure
82% 30.08" Hg 1019 hPa